VTK519 VHHH-UHWW
Flight info
| Callsign | VTK519 |
|---|---|
| Flight time | 4h 0m |
| Altitude | 35100 |
| Route | K0885S1070 BEKOL A461 IDUMA W41 ISLOM G471 PLT A599 TUPGA W135 ADBAS/K0883S1130 V77 LURMA A599 JTN W116 PK G455 HSH/K0880S1100 V2 ODULO B221 XDX/K0874S1130 W174 FD W172 TEKAM V68 DOBGA W202 UDETI A588 LEMOT W657 APESI G341 WQG B451 SANAR |
| Aircraft | B772/H-SDE2E3FGHIJ5LORVWXY/LB1D1 |
Departure
| Time | 2026-04-25 02:25 |
|---|---|
| Airport | Hong Kong International Airport (VHHH) |
Arrival
| Time | 2026-04-25 06:25 |
|---|---|
| Airport | Vladivostok International Airport (UHWW) |
| Time | Latitude | Longitude | Altitude | Speed | Heading |
|---|---|---|---|---|---|
| 2026-04-25 01:55 | 22.31438 | 113.92277 | 40 ft | 0 kts | 46° |
| 2026-04-25 02:10 | 22.31428 | 113.92266 | 39 ft | 3 kts | 46° |
| 2026-04-25 02:10 | 22.31414 | 113.92250 | 39 ft | 3 kts | 46° |
| 2026-04-25 02:10 | 22.31402 | 113.92236 | 37 ft | 2 kts | 45° |
| 2026-04-25 02:10 | 22.31394 | 113.92231 | 36 ft | 3 kts | 356° |
| 2026-04-25 02:11 | 22.31375 | 113.92232 | 37 ft | 3 kts | 344° |
| 2026-04-25 02:11 | 22.31366 | 113.92241 | 38 ft | 3 kts | 295° |
| 2026-04-25 02:11 | 22.31358 | 113.92259 | 35 ft | 3 kts | 295° |
| 2026-04-25 02:11 | 22.31349 | 113.92279 | 38 ft | 3 kts | 295° |
| 2026-04-25 02:12 | 22.31345 | 113.92288 | 38 ft | 0 kts | 295° |
| 2026-04-25 02:15 | 22.31345 | 113.92287 | 38 ft | 1 kts | 295° |
| 2026-04-25 02:15 | 22.31355 | 113.92265 | 40 ft | 5 kts | 295° |
| 2026-04-25 02:16 | 22.31370 | 113.92232 | 39 ft | 5 kts | 295° |
| 2026-04-25 02:16 | 22.31384 | 113.92199 | 36 ft | 5 kts | 295° |
| 2026-04-25 02:16 | 22.31398 | 113.92166 | 40 ft | 5 kts | 296° |
| 2026-04-25 02:16 | 22.31413 | 113.92133 | 40 ft | 5 kts | 296° |
| 2026-04-25 02:17 | 22.31430 | 113.92101 | 40 ft | 5 kts | 308° |
| 2026-04-25 02:17 | 22.31458 | 113.92082 | 39 ft | 5 kts | 335° |
| 2026-04-25 02:17 | 22.31497 | 113.92066 | 40 ft | 6 kts | 339° |
| 2026-04-25 02:17 | 22.31539 | 113.92050 | 40 ft | 6 kts | 341° |
| 2026-04-25 02:18 | 22.31580 | 113.92035 | 40 ft | 6 kts | 341° |
| 2026-04-25 02:18 | 22.31617 | 113.92013 | 40 ft | 6 kts | 303° |
| 2026-04-25 02:18 | 22.31612 | 113.91967 | 40 ft | 6 kts | 249° |
| 2026-04-25 02:18 | 22.31591 | 113.91903 | 40 ft | 13 kts | 251° |
| 2026-04-25 02:19 | 22.31552 | 113.91782 | 40 ft | 20 kts | 251° |
| 2026-04-25 02:19 | 22.31506 | 113.91638 | 40 ft | 20 kts | 251° |
| 2026-04-25 02:19 | 22.31459 | 113.91494 | 40 ft | 20 kts | 251° |
| 2026-04-25 02:19 | 22.31412 | 113.91350 | 40 ft | 20 kts | 251° |
| 2026-04-25 02:20 | 22.31366 | 113.91206 | 40 ft | 20 kts | 251° |
| 2026-04-25 02:20 | 22.31319 | 113.91062 | 40 ft | 20 kts | 251° |
| 2026-04-25 02:20 | 22.31273 | 113.90918 | 40 ft | 20 kts | 251° |
| 2026-04-25 02:20 | 22.31226 | 113.90774 | 40 ft | 20 kts | 251° |
| 2026-04-25 02:21 | 22.31180 | 113.90630 | 40 ft | 20 kts | 251° |
| 2026-04-25 02:21 | 22.31133 | 113.90486 | 40 ft | 20 kts | 251° |
| 2026-04-25 02:21 | 22.31087 | 113.90342 | 40 ft | 20 kts | 251° |
| 2026-04-25 02:21 | 22.31040 | 113.90198 | 40 ft | 20 kts | 251° |
| 2026-04-25 02:22 | 22.31001 | 113.90076 | 40 ft | 13 kts | 251° |
| 2026-04-25 02:22 | 22.30976 | 113.89999 | 40 ft | 11 kts | 251° |
| 2026-04-25 02:22 | 22.30961 | 113.89929 | 40 ft | 9 kts | 278° |
| 2026-04-25 02:22 | 22.31008 | 113.89885 | 40 ft | 9 kts | 339° |
| 2026-04-25 02:23 | 22.31070 | 113.89863 | 40 ft | 9 kts | 349° |
| 2026-04-25 02:23 | 22.31123 | 113.89896 | 40 ft | 9 kts | 58° |
| 2026-04-25 02:23 | 22.31140 | 113.89940 | 40 ft | 0 kts | 70° |
| 2026-04-25 02:24 | 22.31161 | 113.90002 | 40 ft | 31 kts | 70° |
| 2026-04-25 02:24 | 22.31316 | 113.90485 | 40 ft | 104 kts | 71° |
| 2026-04-25 02:25 | 22.31630 | 113.91456 | 41 ft | 168 kts | 71° |
| 2026-04-25 02:25 | 22.32039 | 113.92720 | 593 ft | 179 kts | 70° |
| 2026-04-25 02:25 | 22.32450 | 113.93990 | 1406 ft | 180 kts | 70° |
| 2026-04-25 02:25 | 22.32857 | 113.95250 | 2008 ft | 178 kts | 70° |
| 2026-04-25 02:26 | 22.33277 | 113.96523 | 2486 ft | 182 kts | 69° |
| 2026-04-25 02:26 | 22.33889 | 113.97740 | 2823 ft | 189 kts | 54° |
| 2026-04-25 02:26 | 22.34660 | 113.98907 | 3283 ft | 194 kts | 54° |
| 2026-04-25 02:26 | 22.35473 | 114.00172 | 3492 ft | 215 kts | 54° |
| 2026-04-25 02:27 | 22.36352 | 114.01554 | 3753 ft | 230 kts | 55° |
| 2026-04-25 02:27 | 22.37258 | 114.03001 | 4275 ft | 234 kts | 55° |
| 2026-04-25 02:27 | 22.38164 | 114.04455 | 4900 ft | 233 kts | 55° |
| 2026-04-25 02:27 | 22.39062 | 114.05890 | 5414 ft | 235 kts | 54° |
| 2026-04-25 02:28 | 22.39952 | 114.07393 | 5894 ft | 235 kts | 66° |
| 2026-04-25 02:28 | 22.40205 | 114.09123 | 6150 ft | 245 kts | 102° |
| 2026-04-25 02:28 | 22.39594 | 114.10858 | 6404 ft | 253 kts | 117° |
| 2026-04-25 02:28 | 22.38802 | 114.12633 | 6611 ft | 271 kts | 116° |
| 2026-04-25 02:29 | 22.37990 | 114.14541 | 6925 ft | 286 kts | 115° |
| 2026-04-25 02:29 | 22.37163 | 114.16519 | 7496 ft | 291 kts | 115° |
| 2026-04-25 02:29 | 22.36347 | 114.18530 | 8126 ft | 294 kts | 114° |
| 2026-04-25 02:29 | 22.35526 | 114.20561 | 8792 ft | 296 kts | 114° |
| 2026-04-25 02:30 | 22.34701 | 114.22607 | 9458 ft | 298 kts | 114° |
| 2026-04-25 02:30 | 22.34144 | 114.23994 | 9901 ft | 300 kts | 114° |
| 2026-04-25 02:30 | 22.33500 | 114.26133 | 10319 ft | 304 kts | 94° |
| 2026-04-25 02:30 | 22.33819 | 114.28379 | 10777 ft | 307 kts | 62° |
| 2026-04-25 02:31 | 22.35011 | 114.30258 | 11316 ft | 303 kts | 50° |
| 2026-04-25 02:31 | 22.36305 | 114.32049 | 11808 ft | 309 kts | 51° |
| 2026-04-25 02:31 | 22.37693 | 114.33814 | 12312 ft | 308 kts | 36° |
| 2026-04-25 02:31 | 22.39607 | 114.34818 | 12815 ft | 308 kts | 9° |
| 2026-04-25 02:32 | 22.41739 | 114.34890 | 13372 ft | 307 kts | 348° |
| 2026-04-25 02:32 | 22.43836 | 114.34479 | 13911 ft | 310 kts | 347° |
| 2026-04-25 02:32 | 22.45981 | 114.34073 | 14460 ft | 313 kts | 348° |
| 2026-04-25 02:32 | 22.48108 | 114.33658 | 15233 ft | 305 kts | 343° |
| 2026-04-25 02:33 | 22.50009 | 114.32677 | 15552 ft | 312 kts | 316° |
| 2026-04-25 02:33 | 22.51308 | 114.30738 | 15600 ft | 331 kts | 291° |
| 2026-04-25 02:33 | 22.51873 | 114.28280 | 15745 ft | 343 kts | 279° |
| 2026-04-25 02:33 | 22.52278 | 114.25674 | 16046 ft | 357 kts | 281° |
| 2026-04-25 02:34 | 22.52729 | 114.23000 | 16581 ft | 364 kts | 281° |
| 2026-04-25 02:34 | 22.53180 | 114.20297 | 17250 ft | 367 kts | 281° |
| 2026-04-25 02:34 | 22.53625 | 114.17570 | 17967 ft | 366 kts | 282° |
| 2026-04-25 02:34 | 22.54445 | 114.14976 | 18416 ft | 371 kts | 300° |
| 2026-04-25 02:35 | 22.56081 | 114.12803 | 18929 ft | 377 kts | 316° |
| 2026-04-25 02:35 | 22.58217 | 114.11150 | 19535 ft | 381 kts | 329° |
| 2026-04-25 02:35 | 22.60614 | 114.09895 | 20108 ft | 385 kts | 332° |
| 2026-04-25 02:35 | 22.63070 | 114.08684 | 20654 ft | 390 kts | 333° |
| 2026-04-25 02:36 | 22.65553 | 114.07467 | 21193 ft | 394 kts | 332° |
| 2026-04-25 02:36 | 22.68057 | 114.06223 | 21760 ft | 398 kts | 332° |
| 2026-04-25 02:36 | 22.70581 | 114.04953 | 22328 ft | 402 kts | 332° |
| 2026-04-25 02:36 | 22.73119 | 114.03662 | 22863 ft | 406 kts | 331° |
| 2026-04-25 02:37 | 22.75686 | 114.02348 | 23385 ft | 410 kts | 331° |
| 2026-04-25 02:37 | 22.78284 | 114.01014 | 23869 ft | 415 kts | 331° |
| 2026-04-25 02:37 | 22.80900 | 113.99671 | 24383 ft | 417 kts | 330° |
| 2026-04-25 02:37 | 22.83525 | 113.98323 | 24955 ft | 417 kts | 330° |
| 2026-04-25 02:38 | 22.86159 | 113.96991 | 25433 ft | 419 kts | 333° |
| 2026-04-25 02:38 | 22.88984 | 113.96054 | 25777 ft | 432 kts | 345° |
| 2026-04-25 02:38 | 22.92002 | 113.95722 | 26190 ft | 441 kts | 355° |
| 2026-04-25 02:38 | 22.95089 | 113.95975 | 26640 ft | 449 kts | 4° |
| 2026-04-25 02:39 | 22.98179 | 113.96538 | 27081 ft | 452 kts | 5° |
| 2026-04-25 02:39 | 23.01293 | 113.97131 | 27484 ft | 455 kts | 5° |
| 2026-04-25 02:39 | 23.04422 | 113.97717 | 27867 ft | 458 kts | 5° |
| 2026-04-25 02:39 | 23.07581 | 113.98288 | 28252 ft | 461 kts | 5° |
| 2026-04-25 02:40 | 23.10759 | 113.98847 | 28655 ft | 463 kts | 4° |
| 2026-04-25 02:40 | 23.13948 | 113.99399 | 29087 ft | 464 kts | 4° |
| 2026-04-25 02:40 | 23.17140 | 113.99949 | 29475 ft | 466 kts | 4° |
| 2026-04-25 02:40 | 23.20358 | 114.00503 | 29783 ft | 470 kts | 4° |
| 2026-04-25 02:41 | 23.23595 | 114.01062 | 30076 ft | 473 kts | 4° |
| 2026-04-25 02:41 | 23.26834 | 114.01866 | 30343 ft | 482 kts | 13° |
| 2026-04-25 02:41 | 23.29965 | 114.03257 | 30591 ft | 490 kts | 22° |
| 2026-04-25 02:41 | 23.32921 | 114.05151 | 30836 ft | 499 kts | 32° |
| 2026-04-25 02:42 | 23.35675 | 114.07474 | 31070 ft | 503 kts | 34° |
| 2026-04-25 02:42 | 23.38409 | 114.09886 | 31249 ft | 507 kts | 35° |
| 2026-04-25 02:42 | 23.41159 | 114.12319 | 31457 ft | 510 kts | 35° |
| 2026-04-25 02:42 | 23.43889 | 114.14712 | 31685 ft | 512 kts | 34° |
| 2026-04-25 02:43 | 23.46715 | 114.17163 | 31911 ft | 514 kts | 34° |
| 2026-04-25 02:43 | 23.49489 | 114.19551 | 32125 ft | 516 kts | 34° |
| 2026-04-25 02:43 | 23.52316 | 114.21974 | 32343 ft | 518 kts | 34° |
| 2026-04-25 02:43 | 23.55149 | 114.24402 | 32517 ft | 520 kts | 34° |
| 2026-04-25 02:44 | 23.57996 | 114.26845 | 32702 ft | 522 kts | 34° |
| 2026-04-25 02:44 | 23.60851 | 114.29298 | 32868 ft | 524 kts | 34° |
| 2026-04-25 02:44 | 23.63716 | 114.31763 | 33140 ft | 523 kts | 34° |
| 2026-04-25 02:44 | 23.66562 | 114.34195 | 33574 ft | 518 kts | 33° |
| 2026-04-25 02:45 | 23.69464 | 114.36600 | 33844 ft | 518 kts | 32° |
| 2026-04-25 02:45 | 23.72321 | 114.38925 | 34004 ft | 520 kts | 32° |
| 2026-04-25 02:45 | 23.75229 | 114.41280 | 34098 ft | 523 kts | 32° |
| 2026-04-25 02:45 | 23.78155 | 114.43653 | 34254 ft | 524 kts | 32° |
| 2026-04-25 02:46 | 23.81110 | 114.46063 | 34488 ft | 523 kts | 32° |
| 2026-04-25 02:46 | 23.83987 | 114.48421 | 34723 ft | 523 kts | 32° |
| 2026-04-25 02:46 | 23.86894 | 114.50809 | 34936 ft | 524 kts | 32° |
| 2026-04-25 02:46 | 23.89808 | 114.53207 | 35132 ft | 524 kts | 32° |
| 2026-04-25 02:47 | 23.92719 | 114.55604 | 35182 ft | 525 kts | 32° |
| 2026-04-25 02:47 | 23.98538 | 114.60400 | 35203 ft | 521 kts | 32° |
| 2026-04-25 02:48 | 24.04314 | 114.65163 | 35212 ft | 519 kts | 32° |
| 2026-04-25 02:48 | 24.10077 | 114.69919 | 35223 ft | 519 kts | 32° |
| 2026-04-25 02:49 | 24.15852 | 114.74692 | 35243 ft | 521 kts | 31° |
| 2026-04-25 02:49 | 24.21647 | 114.79487 | 35218 ft | 522 kts | 31° |
| 2026-04-25 02:50 | 24.27667 | 114.83820 | 35212 ft | 512 kts | 20° |
| 2026-04-25 02:50 | 24.34241 | 114.86588 | 35220 ft | 500 kts | 7° |
| 2026-04-25 02:51 | 24.41016 | 114.88199 | 35258 ft | 498 kts | 4° |
| 2026-04-25 02:51 | 24.47816 | 114.89798 | 35229 ft | 500 kts | 5° |
| 2026-04-25 02:52 | 24.54606 | 114.91468 | 35225 ft | 500 kts | 5° |
| 2026-04-25 02:52 | 24.61387 | 114.93145 | 35213 ft | 499 kts | 5° |
| 2026-04-25 02:53 | 24.68159 | 114.94835 | 35253 ft | 499 kts | 5° |
| 2026-04-25 02:53 | 24.74905 | 114.96526 | 35222 ft | 498 kts | 5° |
| 2026-04-25 02:54 | 24.81659 | 114.98194 | 35224 ft | 496 kts | 4° |
| 2026-04-25 02:54 | 24.88397 | 114.99830 | 35226 ft | 495 kts | 4° |
| 2026-04-25 02:55 | 24.95122 | 115.01467 | 35258 ft | 495 kts | 4° |
| 2026-04-25 02:55 | 25.01847 | 115.03110 | 35227 ft | 496 kts | 4° |
| 2026-04-25 02:56 | 25.08584 | 115.04760 | 35209 ft | 495 kts | 4° |
| 2026-04-25 02:56 | 25.15303 | 115.06409 | 35234 ft | 495 kts | 4° |
| 2026-04-25 02:57 | 25.22040 | 115.08061 | 35272 ft | 496 kts | 4° |
| 2026-04-25 02:57 | 25.28783 | 115.09718 | 35231 ft | 496 kts | 3° |
| 2026-04-25 02:57 | 25.32147 | 115.10277 | 35208 ft | 481 kts | 352° |
| 2026-04-25 02:58 | 25.35419 | 115.10072 | 35230 ft | 465 kts | 341° |
| 2026-04-25 02:58 | 25.38529 | 115.09280 | 35233 ft | 454 kts | 333° |
| 2026-04-25 02:58 | 25.41393 | 115.07965 | 35231 ft | 441 kts | 325° |
| 2026-04-25 02:59 | 25.46945 | 115.04996 | 35229 ft | 445 kts | 326° |
| 2026-04-25 02:59 | 25.52557 | 115.02075 | 35247 ft | 447 kts | 326° |
| 2026-04-25 03:00 | 25.58189 | 114.99176 | 35232 ft | 445 kts | 326° |
| 2026-04-25 03:00 | 25.63774 | 114.96301 | 35222 ft | 441 kts | 326° |
| 2026-04-25 03:01 | 25.69323 | 114.93435 | 35220 ft | 439 kts | 326° |
| 2026-04-25 03:01 | 25.74913 | 114.90731 | 35211 ft | 446 kts | 336° |
| 2026-04-25 03:01 | 25.78065 | 114.90315 | 35224 ft | 470 kts | 353° |
| 2026-04-25 03:02 | 25.81361 | 114.90909 | 35228 ft | 492 kts | 8° |
| 2026-04-25 03:02 | 25.84586 | 114.92389 | 35254 ft | 512 kts | 20° |
| 2026-04-25 03:02 | 25.87446 | 114.94793 | 35234 ft | 533 kts | 37° |
| 2026-04-25 03:03 | 25.92529 | 115.00890 | 35218 ft | 541 kts | 41° |
| 2026-04-25 03:03 | 25.97516 | 115.07170 | 35231 ft | 543 kts | 41° |
| 2026-04-25 03:04 | 26.02602 | 115.13377 | 35226 ft | 542 kts | 40° |
| 2026-04-25 03:04 | 26.07740 | 115.19501 | 35222 ft | 541 kts | 39° |
| 2026-04-25 03:05 | 26.15454 | 115.28663 | 35221 ft | 540 kts | 40° |
| 2026-04-25 03:05 | 26.20569 | 115.34766 | 35213 ft | 539 kts | 40° |
| 2026-04-25 03:06 | 26.25677 | 115.40877 | 35223 ft | 539 kts | 40° |
| 2026-04-25 03:06 | 26.30796 | 115.47009 | 35230 ft | 542 kts | 39° |
| 2026-04-25 03:07 | 26.35931 | 115.53166 | 35227 ft | 543 kts | 39° |
| 2026-04-25 03:07 | 26.41077 | 115.59349 | 35231 ft | 544 kts | 40° |
| 2026-04-25 03:08 | 26.46234 | 115.65552 | 35205 ft | 545 kts | 40° |
| 2026-04-25 03:08 | 26.51382 | 115.71755 | 35258 ft | 545 kts | 39° |
| 2026-04-25 03:09 | 26.56545 | 115.77979 | 35220 ft | 546 kts | 39° |
| 2026-04-25 03:09 | 26.61696 | 115.84205 | 35232 ft | 546 kts | 40° |
| 2026-04-25 03:10 | 26.66859 | 115.90451 | 35222 ft | 548 kts | 40° |
| 2026-04-25 03:10 | 26.72036 | 115.96721 | 35215 ft | 549 kts | 40° |
| 2026-04-25 03:11 | 26.77233 | 116.03025 | 35230 ft | 552 kts | 40° |
| 2026-04-25 03:11 | 26.82440 | 116.09354 | 35223 ft | 554 kts | 40° |
| 2026-04-25 03:12 | 26.87661 | 116.15711 | 35221 ft | 554 kts | 40° |
| 2026-04-25 03:12 | 26.92876 | 116.22062 | 35219 ft | 553 kts | 40° |
| 2026-04-25 03:13 | 26.97231 | 116.27317 | 35214 ft | 554 kts | 39° |
| 2026-04-25 03:13 | 27.02486 | 116.33636 | 35223 ft | 556 kts | 39° |
| 2026-04-25 03:14 | 27.07758 | 116.39997 | 35223 ft | 557 kts | 39° |
| 2026-04-25 03:14 | 27.13038 | 116.46387 | 35224 ft | 559 kts | 40° |
| 2026-04-25 03:15 | 27.18329 | 116.52799 | 35245 ft | 561 kts | 39° |
| 2026-04-25 03:15 | 27.23664 | 116.59208 | 35211 ft | 561 kts | 38° |
| 2026-04-25 03:16 | 27.29099 | 116.65504 | 35226 ft | 561 kts | 38° |
| 2026-04-25 03:16 | 27.34546 | 116.71801 | 35222 ft | 562 kts | 38° |
| 2026-04-25 03:17 | 27.39972 | 116.78127 | 35256 ft | 562 kts | 38° |
| 2026-04-25 03:17 | 27.45393 | 116.84474 | 35205 ft | 562 kts | 38° |
| 2026-04-25 03:18 | 27.50803 | 116.90813 | 35210 ft | 561 kts | 38° |
| 2026-04-25 03:18 | 27.56231 | 116.97130 | 35222 ft | 561 kts | 38° |
| 2026-04-25 03:19 | 27.61691 | 117.03425 | 35269 ft | 562 kts | 38° |
| 2026-04-25 03:19 | 27.67135 | 117.09717 | 35220 ft | 559 kts | 38° |
| 2026-04-25 03:20 | 27.72545 | 117.15987 | 35213 ft | 556 kts | 38° |
| 2026-04-25 03:20 | 27.77920 | 117.22241 | 35157 ft | 555 kts | 38° |
| 2026-04-25 03:21 | 27.83304 | 117.28509 | 35274 ft | 558 kts | 38° |
| 2026-04-25 03:21 | 27.88699 | 117.34801 | 35203 ft | 554 kts | 38° |
| 2026-04-25 03:22 | 27.94047 | 117.41028 | 35213 ft | 551 kts | 38° |
| 2026-04-25 03:22 | 27.99382 | 117.47257 | 35204 ft | 552 kts | 38° |
| 2026-04-25 03:23 | 28.04729 | 117.53527 | 35251 ft | 554 kts | 39° |
| 2026-04-25 03:23 | 28.10094 | 117.59808 | 35226 ft | 556 kts | 39° |
| 2026-04-25 03:24 | 28.15476 | 117.66112 | 35223 ft | 557 kts | 39° |
| 2026-04-25 03:24 | 28.20859 | 117.72429 | 35197 ft | 557 kts | 39° |
| 2026-04-25 03:25 | 28.26230 | 117.78750 | 35215 ft | 556 kts | 39° |
| 2026-04-25 03:25 | 28.31589 | 117.85063 | 35209 ft | 554 kts | 39° |
| 2026-04-25 03:26 | 28.36930 | 117.91364 | 35214 ft | 554 kts | 39° |
| 2026-04-25 03:26 | 28.42266 | 117.97668 | 35214 ft | 553 kts | 39° |
| 2026-04-25 03:27 | 28.47524 | 118.04062 | 35219 ft | 554 kts | 41° |
| 2026-04-25 03:27 | 28.52739 | 118.10525 | 35203 ft | 555 kts | 41° |
| 2026-04-25 03:28 | 28.57962 | 118.16993 | 35207 ft | 555 kts | 41° |
| 2026-04-25 03:28 | 28.63199 | 118.23460 | 35213 ft | 556 kts | 41° |
| 2026-04-25 03:29 | 28.68455 | 118.29949 | 35424 ft | 559 kts | 41° |
| 2026-04-25 03:29 | 28.71086 | 118.33203 | 35699 ft | 558 kts | 41° |
| 2026-04-25 03:29 | 28.73709 | 118.36453 | 35991 ft | 555 kts | 41° |
| 2026-04-25 03:30 | 28.76318 | 118.39688 | 36219 ft | 555 kts | 41° |
| 2026-04-25 03:30 | 28.78900 | 118.42891 | 36398 ft | 556 kts | 41° |
| 2026-04-25 03:30 | 28.81511 | 118.46132 | 36644 ft | 555 kts | 42° |
| 2026-04-25 03:30 | 28.84121 | 118.49372 | 36884 ft | 555 kts | 42° |
| 2026-04-25 03:31 | 28.86727 | 118.52610 | 37090 ft | 555 kts | 42° |
| 2026-04-25 03:31 | 28.89339 | 118.55859 | 37107 ft | 556 kts | 42° |
| 2026-04-25 03:31 | 28.94537 | 118.62340 | 37106 ft | 550 kts | 42° |
| 2026-04-25 03:32 | 28.99707 | 118.68791 | 37105 ft | 551 kts | 42° |
| 2026-04-25 03:32 | 29.04875 | 118.75249 | 37181 ft | 551 kts | 43° |
| 2026-04-25 03:33 | 29.10068 | 118.81747 | 37125 ft | 555 kts | 43° |
| 2026-04-25 03:33 | 29.15279 | 118.88280 | 37118 ft | 556 kts | 43° |
| 2026-04-25 03:34 | 29.20481 | 118.94815 | 37111 ft | 555 kts | 43° |
| 2026-04-25 03:34 | 29.25659 | 119.01334 | 37140 ft | 554 kts | 44° |
| 2026-04-25 03:35 | 29.30835 | 119.07878 | 37118 ft | 554 kts | 44° |
| 2026-04-25 03:35 | 29.35563 | 119.14873 | 37127 ft | 559 kts | 55° |
| 2026-04-25 03:36 | 29.39238 | 119.22745 | 37116 ft | 562 kts | 65° |
| 2026-04-25 03:36 | 29.42253 | 119.31010 | 37139 ft | 562 kts | 67° |
| 2026-04-25 03:37 | 29.45279 | 119.39267 | 37123 ft | 562 kts | 66° |
| 2026-04-25 03:37 | 29.48370 | 119.47509 | 37121 ft | 563 kts | 66° |
| 2026-04-25 03:38 | 29.51462 | 119.55758 | 37108 ft | 562 kts | 66° |
| 2026-04-25 03:38 | 29.55293 | 119.63503 | 37123 ft | 556 kts | 47° |
| 2026-04-25 03:39 | 29.60763 | 119.69637 | 37156 ft | 546 kts | 31° |
| 2026-04-25 03:39 | 29.67046 | 119.74489 | 37146 ft | 543 kts | 27° |
| 2026-04-25 03:40 | 29.73396 | 119.79196 | 37116 ft | 543 kts | 27° |
| 2026-04-25 03:40 | 29.79678 | 119.83988 | 37161 ft | 542 kts | 28° |
| 2026-04-25 03:41 | 29.85925 | 119.88841 | 37140 ft | 541 kts | 29° |
| 2026-04-25 03:41 | 29.92160 | 119.93708 | 37125 ft | 541 kts | 29° |
| 2026-04-25 03:42 | 29.98388 | 119.98569 | 37134 ft | 541 kts | 29° |
| 2026-04-25 03:42 | 30.04622 | 120.03432 | 37138 ft | 541 kts | 29° |
| 2026-04-25 03:43 | 30.10850 | 120.08299 | 37129 ft | 540 kts | 29° |
| 2026-04-25 03:43 | 30.17063 | 120.13163 | 37120 ft | 539 kts | 29° |
| 2026-04-25 03:44 | 30.23280 | 120.18037 | 37134 ft | 541 kts | 29° |
| 2026-04-25 03:44 | 30.29515 | 120.22934 | 37135 ft | 542 kts | 29° |
| 2026-04-25 03:45 | 30.35764 | 120.27840 | 37132 ft | 543 kts | 29° |
| 2026-04-25 03:45 | 30.42087 | 120.32648 | 37168 ft | 543 kts | 28° |
| 2026-04-25 03:46 | 30.48426 | 120.37415 | 37132 ft | 543 kts | 28° |
| 2026-04-25 03:46 | 30.54749 | 120.42202 | 37126 ft | 542 kts | 28° |
| 2026-04-25 03:47 | 30.61046 | 120.46997 | 37131 ft | 542 kts | 28° |
| 2026-04-25 03:47 | 30.67345 | 120.51800 | 37134 ft | 542 kts | 29° |
| 2026-04-25 03:48 | 30.73638 | 120.56608 | 37131 ft | 540 kts | 29° |
| 2026-04-25 03:48 | 30.79906 | 120.61401 | 37132 ft | 539 kts | 29° |
| 2026-04-25 03:49 | 30.86165 | 120.66196 | 37141 ft | 538 kts | 29° |
| 2026-04-25 03:49 | 30.92404 | 120.71000 | 37124 ft | 536 kts | 32° |
| 2026-04-25 03:50 | 30.95240 | 120.73848 | 37134 ft | 541 kts | 46° |
| 2026-04-25 03:50 | 30.97526 | 120.77339 | 37142 ft | 544 kts | 58° |
| 2026-04-25 03:50 | 30.99237 | 120.81256 | 37139 ft | 544 kts | 71° |
| 2026-04-25 03:50 | 31.00318 | 120.85467 | 37179 ft | 541 kts | 77° |
| 2026-04-25 03:51 | 31.02220 | 120.93969 | 37132 ft | 543 kts | 77° |
| 2026-04-25 03:51 | 31.04233 | 121.02456 | 37135 ft | 544 kts | 76° |
| 2026-04-25 03:52 | 31.06314 | 121.10941 | 37153 ft | 545 kts | 76° |
| 2026-04-25 03:52 | 31.08424 | 121.19433 | 37155 ft | 546 kts | 75° |
| 2026-04-25 03:53 | 31.10659 | 121.27879 | 36890 ft | 544 kts | 75° |
| 2026-04-25 03:53 | 31.11829 | 121.32085 | 36475 ft | 547 kts | 71° |
| 2026-04-25 03:53 | 31.13270 | 121.36189 | 36284 ft | 545 kts | 65° |
| 2026-04-25 03:54 | 31.16945 | 121.43952 | 36260 ft | 547 kts | 59° |
| 2026-04-25 03:54 | 31.20771 | 121.51611 | 36253 ft | 545 kts | 60° |
| 2026-04-25 03:55 | 31.23902 | 121.58006 | 36248 ft | 546 kts | 60° |
| 2026-04-25 03:55 | 31.27643 | 121.65740 | 36287 ft | 547 kts | 60° |
| 2026-04-25 03:56 | 31.31391 | 121.73491 | 36263 ft | 548 kts | 60° |
| 2026-04-25 03:56 | 31.33430 | 121.77230 | 36233 ft | 544 kts | 48° |
| 2026-04-25 03:56 | 31.36163 | 121.80231 | 36241 ft | 536 kts | 30° |
| 2026-04-25 03:57 | 31.39426 | 121.82240 | 36257 ft | 526 kts | 14° |
| 2026-04-25 03:57 | 31.42913 | 121.83407 | 36267 ft | 518 kts | 4° |
| 2026-04-25 03:57 | 31.46459 | 121.83780 | 36288 ft | 505 kts | 348° |
| 2026-04-25 03:57 | 31.49909 | 121.83345 | 36283 ft | 498 kts | 345° |
| 2026-04-25 03:58 | 31.56824 | 121.82327 | 36268 ft | 503 kts | 346° |
| 2026-04-25 03:58 | 31.63812 | 121.81413 | 36266 ft | 507 kts | 346° |
| 2026-04-25 03:59 | 31.70849 | 121.80558 | 36290 ft | 509 kts | 347° |
| 2026-04-25 03:59 | 31.77890 | 121.79705 | 36274 ft | 508 kts | 347° |
| 2026-04-25 04:00 | 31.84886 | 121.78849 | 36257 ft | 503 kts | 347° |
| 2026-04-25 04:00 | 31.91822 | 121.78006 | 36255 ft | 500 kts | 347° |
| 2026-04-25 04:01 | 31.98728 | 121.77198 | 36264 ft | 497 kts | 348° |
| 2026-04-25 04:01 | 32.05600 | 121.76396 | 36257 ft | 495 kts | 348° |
| 2026-04-25 04:02 | 32.12446 | 121.75591 | 36261 ft | 494 kts | 348° |
| 2026-04-25 04:02 | 32.19296 | 121.74778 | 36264 ft | 495 kts | 348° |
| 2026-04-25 04:03 | 32.26161 | 121.73960 | 36262 ft | 497 kts | 348° |
| 2026-04-25 04:03 | 32.33048 | 121.73148 | 36264 ft | 498 kts | 348° |
| 2026-04-25 04:04 | 32.39905 | 121.72338 | 36261 ft | 499 kts | 348° |
| 2026-04-25 04:04 | 32.46811 | 121.71518 | 36269 ft | 499 kts | 348° |
| 2026-04-25 04:05 | 32.53753 | 121.70692 | 36261 ft | 498 kts | 348° |
| 2026-04-25 04:05 | 32.60645 | 121.69871 | 36263 ft | 497 kts | 348° |
| 2026-04-25 04:06 | 32.67484 | 121.69054 | 36283 ft | 496 kts | 348° |
| 2026-04-25 04:06 | 32.74399 | 121.68222 | 36266 ft | 496 kts | 348° |
| 2026-04-25 04:07 | 32.81204 | 121.67403 | 36262 ft | 495 kts | 348° |
| 2026-04-25 04:07 | 32.88056 | 121.66583 | 36263 ft | 494 kts | 348° |
| 2026-04-25 04:08 | 32.94897 | 121.65762 | 36273 ft | 494 kts | 348° |
| 2026-04-25 04:08 | 33.01731 | 121.64941 | 36261 ft | 494 kts | 348° |
| 2026-04-25 04:09 | 33.08563 | 121.64118 | 36260 ft | 493 kts | 348° |
| 2026-04-25 04:09 | 33.15386 | 121.63296 | 36277 ft | 493 kts | 349° |
| 2026-04-25 04:10 | 33.22197 | 121.62412 | 36262 ft | 490 kts | 345° |
| 2026-04-25 04:10 | 33.28724 | 121.60397 | 36262 ft | 480 kts | 334° |
| 2026-04-25 04:11 | 33.37853 | 121.55683 | 36263 ft | 476 kts | 330° |
| 2026-04-25 04:12 | 33.43932 | 121.52498 | 36270 ft | 477 kts | 331° |
| 2026-04-25 04:12 | 33.50012 | 121.49353 | 36259 ft | 476 kts | 332° |
| 2026-04-25 04:13 | 33.56083 | 121.46211 | 36260 ft | 474 kts | 332° |
| 2026-04-25 04:13 | 33.62126 | 121.43076 | 36261 ft | 473 kts | 331° |
| 2026-04-25 04:14 | 33.68170 | 121.39950 | 36257 ft | 473 kts | 332° |
| 2026-04-25 04:14 | 33.74282 | 121.37022 | 36253 ft | 473 kts | 334° |
| 2026-04-25 04:15 | 33.80410 | 121.34177 | 36249 ft | 472 kts | 334° |
| 2026-04-25 04:15 | 33.86527 | 121.31310 | 36253 ft | 472 kts | 334° |
| 2026-04-25 04:16 | 33.99195 | 121.25300 | 36254 ft | 472 kts | 334° |
| 2026-04-25 04:17 | 34.05292 | 121.22398 | 36260 ft | 471 kts | 334° |
| 2026-04-25 04:17 | 34.11372 | 121.19500 | 36252 ft | 469 kts | 334° |
| 2026-04-25 04:18 | 34.17440 | 121.16603 | 36265 ft | 468 kts | 334° |
| 2026-04-25 04:18 | 34.23485 | 121.13711 | 36250 ft | 467 kts | 334° |
| 2026-04-25 04:19 | 34.29533 | 121.10815 | 36251 ft | 467 kts | 334° |
| 2026-04-25 04:19 | 34.34593 | 121.08388 | 36247 ft | 467 kts | 334° |
| 2026-04-25 04:20 | 34.40634 | 121.05486 | 36245 ft | 467 kts | 334° |
| 2026-04-25 04:20 | 34.46681 | 121.02577 | 36250 ft | 468 kts | 334° |
| 2026-04-25 04:21 | 34.52741 | 120.99655 | 36248 ft | 470 kts | 334° |
| 2026-04-25 04:21 | 34.58824 | 120.96718 | 36244 ft | 471 kts | 334° |
| 2026-04-25 04:22 | 34.64906 | 120.93780 | 36246 ft | 471 kts | 334° |
| 2026-04-25 04:22 | 34.70948 | 120.90857 | 36237 ft | 470 kts | 334° |
| 2026-04-25 04:23 | 34.77046 | 120.87901 | 36238 ft | 468 kts | 334° |
| 2026-04-25 04:23 | 34.83100 | 120.84961 | 36236 ft | 468 kts | 334° |
| 2026-04-25 04:24 | 34.89139 | 120.82024 | 36243 ft | 467 kts | 334° |
| 2026-04-25 04:24 | 34.95172 | 120.79085 | 36251 ft | 467 kts | 334° |
| 2026-04-25 04:25 | 35.01213 | 120.76138 | 36240 ft | 468 kts | 334° |
| 2026-04-25 04:25 | 35.07252 | 120.73188 | 36235 ft | 468 kts | 334° |
| 2026-04-25 04:26 | 35.13306 | 120.70226 | 36240 ft | 468 kts | 334° |
| 2026-04-25 04:26 | 35.19387 | 120.67261 | 36238 ft | 468 kts | 335° |
| 2026-04-25 04:27 | 35.25462 | 120.64326 | 36232 ft | 469 kts | 335° |
| 2026-04-25 04:27 | 35.31536 | 120.61386 | 36234 ft | 469 kts | 335° |
| 2026-04-25 04:28 | 35.37604 | 120.58439 | 36232 ft | 469 kts | 335° |
| 2026-04-25 04:28 | 35.43681 | 120.55511 | 36231 ft | 469 kts | 335° |
| 2026-04-25 04:29 | 35.49752 | 120.52579 | 36235 ft | 469 kts | 335° |
| 2026-04-25 04:29 | 35.55812 | 120.49617 | 36222 ft | 468 kts | 335° |
| 2026-04-25 04:30 | 35.61866 | 120.46653 | 36227 ft | 468 kts | 335° |
| 2026-04-25 04:30 | 35.67912 | 120.43693 | 36226 ft | 468 kts | 335° |
| 2026-04-25 04:31 | 35.73959 | 120.40729 | 36240 ft | 468 kts | 335° |
| 2026-04-25 04:31 | 35.79997 | 120.37766 | 36233 ft | 467 kts | 336° |
| 2026-04-25 04:32 | 35.86033 | 120.34799 | 36223 ft | 467 kts | 336° |
| 2026-04-25 04:32 | 35.92060 | 120.31831 | 36226 ft | 466 kts | 335° |
| 2026-04-25 04:33 | 35.98333 | 120.29914 | 36228 ft | 470 kts | 354° |
| 2026-04-25 04:33 | 36.04885 | 120.30618 | 36333 ft | 479 kts | 10° |
| 2026-04-25 04:33 | 36.08131 | 120.31518 | 36570 ft | 478 kts | 10° |
| 2026-04-25 04:34 | 36.11378 | 120.32427 | 36833 ft | 477 kts | 10° |
| 2026-04-25 04:34 | 36.14620 | 120.33311 | 37045 ft | 477 kts | 9° |
| 2026-04-25 04:34 | 36.17868 | 120.34169 | 37142 ft | 478 kts | 9° |
| 2026-04-25 04:35 | 36.24397 | 120.35857 | 37206 ft | 479 kts | 9° |
| 2026-04-25 04:35 | 36.30873 | 120.37712 | 37198 ft | 477 kts | 14° |
| 2026-04-25 04:36 | 36.37195 | 120.40178 | 37207 ft | 475 kts | 15° |
| 2026-04-25 04:36 | 36.43496 | 120.42662 | 37197 ft | 476 kts | 15° |
| 2026-04-25 04:37 | 36.49836 | 120.45124 | 37207 ft | 478 kts | 15° |
| 2026-04-25 04:37 | 36.56199 | 120.47590 | 37205 ft | 479 kts | 15° |
| 2026-04-25 04:38 | 36.62544 | 120.50165 | 37193 ft | 481 kts | 17° |
| 2026-04-25 04:38 | 36.68872 | 120.52888 | 37193 ft | 481 kts | 17° |
| 2026-04-25 04:39 | 36.75192 | 120.55599 | 37194 ft | 479 kts | 17° |
| 2026-04-25 04:39 | 36.81475 | 120.58277 | 37168 ft | 475 kts | 17° |
| 2026-04-25 04:40 | 36.87712 | 120.60937 | 37162 ft | 472 kts | 17° |
| 2026-04-25 04:40 | 36.93942 | 120.63379 | 37189 ft | 468 kts | 11° |
| 2026-04-25 04:41 | 37.00344 | 120.64667 | 37187 ft | 466 kts | 6° |
| 2026-04-25 04:41 | 37.06773 | 120.65788 | 37174 ft | 467 kts | 6° |
| 2026-04-25 04:42 | 37.13255 | 120.66964 | 37172 ft | 468 kts | 6° |
| 2026-04-25 04:42 | 37.19700 | 120.68165 | 37156 ft | 468 kts | 6° |
| 2026-04-25 04:43 | 37.26140 | 120.69377 | 37164 ft | 467 kts | 6° |
| 2026-04-25 04:43 | 37.32566 | 120.70586 | 37156 ft | 467 kts | 6° |
| 2026-04-25 04:44 | 37.38972 | 120.71790 | 37143 ft | 465 kts | 6° |
| 2026-04-25 04:44 | 37.45399 | 120.73002 | 37148 ft | 464 kts | 7° |
| 2026-04-25 04:45 | 37.51778 | 120.74207 | 37158 ft | 463 kts | 7° |
| 2026-04-25 04:45 | 37.58008 | 120.76025 | 37152 ft | 465 kts | 18° |
| 2026-04-25 04:46 | 37.63832 | 120.79712 | 37137 ft | 468 kts | 31° |
| 2026-04-25 04:46 | 37.69229 | 120.84306 | 37136 ft | 467 kts | 32° |
| 2026-04-25 04:47 | 37.74597 | 120.88923 | 37139 ft | 467 kts | 32° |
| 2026-04-25 04:47 | 37.79980 | 120.93504 | 37132 ft | 466 kts | 32° |
| 2026-04-25 04:48 | 37.85367 | 120.98065 | 37128 ft | 466 kts | 32° |
| 2026-04-25 04:48 | 37.90732 | 121.02610 | 37145 ft | 467 kts | 32° |
| 2026-04-25 04:49 | 37.96133 | 121.07196 | 37137 ft | 468 kts | 32° |
| 2026-04-25 04:49 | 38.01553 | 121.11808 | 37140 ft | 469 kts | 32° |
| 2026-04-25 04:50 | 38.06966 | 121.16425 | 37141 ft | 469 kts | 32° |
| 2026-04-25 04:50 | 38.12374 | 121.21043 | 37139 ft | 467 kts | 32° |
| 2026-04-25 04:51 | 38.17759 | 121.25653 | 37143 ft | 467 kts | 32° |
| 2026-04-25 04:51 | 38.23146 | 121.30273 | 37145 ft | 467 kts | 32° |
| 2026-04-25 04:52 | 38.28533 | 121.34895 | 37142 ft | 467 kts | 32° |
| 2026-04-25 04:52 | 38.33957 | 121.39564 | 37145 ft | 468 kts | 32° |
| 2026-04-25 04:53 | 38.38400 | 121.43509 | 37148 ft | 469 kts | 37° |
| 2026-04-25 04:53 | 38.42783 | 121.49663 | 37157 ft | 472 kts | 54° |
| 2026-04-25 04:54 | 38.45918 | 121.57062 | 37156 ft | 475 kts | 62° |
| 2026-04-25 04:54 | 38.48861 | 121.64635 | 37155 ft | 476 kts | 61° |
| 2026-04-25 04:55 | 38.51838 | 121.72180 | 37150 ft | 477 kts | 61° |
| 2026-04-25 04:55 | 38.54845 | 121.79729 | 37151 ft | 477 kts | 61° |
| 2026-04-25 04:56 | 38.57857 | 121.87290 | 37155 ft | 478 kts | 61° |
| 2026-04-25 04:56 | 38.60864 | 121.94868 | 37155 ft | 478 kts | 61° |
| 2026-04-25 04:57 | 38.63869 | 122.02468 | 37162 ft | 479 kts | 61° |
| 2026-04-25 04:57 | 38.66873 | 122.10066 | 37156 ft | 479 kts | 60° |
| 2026-04-25 04:58 | 38.70863 | 122.16807 | 37164 ft | 475 kts | 41° |
| 2026-04-25 04:58 | 38.76179 | 122.21710 | 37170 ft | 471 kts | 28° |
| 2026-04-25 04:59 | 38.81819 | 122.26000 | 37160 ft | 471 kts | 29° |
| 2026-04-25 04:59 | 38.87416 | 122.30395 | 37170 ft | 471 kts | 30° |
| 2026-04-25 05:00 | 38.92986 | 122.34822 | 37162 ft | 471 kts | 29° |
| 2026-04-25 05:00 | 38.98561 | 122.39239 | 37161 ft | 471 kts | 30° |
| 2026-04-25 05:01 | 39.04134 | 122.43665 | 37176 ft | 471 kts | 30° |
| 2026-04-25 05:01 | 39.09712 | 122.48108 | 37161 ft | 471 kts | 30° |
| 2026-04-25 05:02 | 39.15246 | 122.52524 | 37160 ft | 471 kts | 30° |
| 2026-04-25 05:02 | 39.20852 | 122.57009 | 37164 ft | 470 kts | 29° |
| 2026-04-25 05:03 | 39.26405 | 122.61456 | 37158 ft | 470 kts | 29° |
| 2026-04-25 05:03 | 39.32053 | 122.65678 | 37156 ft | 469 kts | 26° |
| 2026-04-25 05:04 | 39.37805 | 122.69675 | 37163 ft | 469 kts | 26° |
| 2026-04-25 05:04 | 39.43546 | 122.73700 | 37160 ft | 470 kts | 26° |
| 2026-04-25 05:05 | 39.49271 | 122.77779 | 37156 ft | 470 kts | 26° |
| 2026-04-25 05:05 | 39.54992 | 122.81884 | 37152 ft | 469 kts | 26° |
| 2026-04-25 05:06 | 39.60696 | 122.85985 | 37154 ft | 469 kts | 26° |
| 2026-04-25 05:06 | 39.66396 | 122.90088 | 37153 ft | 469 kts | 26° |
| 2026-04-25 05:07 | 39.72096 | 122.94198 | 37139 ft | 469 kts | 26° |
| 2026-04-25 05:07 | 39.77801 | 122.98320 | 37144 ft | 469 kts | 26° |
| 2026-04-25 05:08 | 39.83501 | 123.02446 | 37146 ft | 469 kts | 26° |
| 2026-04-25 05:08 | 39.89202 | 123.06582 | 37144 ft | 468 kts | 26° |
| 2026-04-25 05:09 | 39.94848 | 123.10686 | 37135 ft | 467 kts | 26° |
| 2026-04-25 05:09 | 40.00559 | 123.14846 | 37136 ft | 467 kts | 26° |
| 2026-04-25 05:10 | 40.06236 | 123.18980 | 37135 ft | 467 kts | 26° |
| 2026-04-25 05:10 | 40.11937 | 123.23070 | 37126 ft | 467 kts | 25° |
| 2026-04-25 05:11 | 40.17639 | 123.27161 | 37130 ft | 467 kts | 25° |
| 2026-04-25 05:11 | 40.23337 | 123.31265 | 37122 ft | 468 kts | 26° |
| 2026-04-25 05:12 | 40.31858 | 123.37426 | 37120 ft | 468 kts | 25° |
| 2026-04-25 05:12 | 40.37559 | 123.41559 | 37099 ft | 468 kts | 25° |
| 2026-04-25 05:13 | 40.43264 | 123.45703 | 37114 ft | 469 kts | 25° |
| 2026-04-25 05:13 | 40.48974 | 123.49859 | 37105 ft | 469 kts | 25° |
| 2026-04-25 05:14 | 40.54673 | 123.54018 | 37101 ft | 469 kts | 25° |
| 2026-04-25 05:15 | 40.63229 | 123.60265 | 37090 ft | 469 kts | 25° |
| 2026-04-25 05:15 | 40.68931 | 123.64433 | 37088 ft | 469 kts | 25° |
| 2026-04-25 05:16 | 40.74631 | 123.68616 | 37094 ft | 469 kts | 25° |
| 2026-04-25 05:16 | 40.80336 | 123.72812 | 37084 ft | 470 kts | 25° |
| 2026-04-25 05:17 | 40.86062 | 123.76997 | 37076 ft | 470 kts | 24° |
| 2026-04-25 05:17 | 40.91824 | 123.81094 | 37078 ft | 471 kts | 24° |
| 2026-04-25 05:18 | 40.97606 | 123.85204 | 37068 ft | 472 kts | 24° |
| 2026-04-25 05:18 | 41.03380 | 123.89334 | 37065 ft | 472 kts | 24° |
| 2026-04-25 05:19 | 41.09156 | 123.93483 | 37073 ft | 473 kts | 24° |
| 2026-04-25 05:19 | 41.14941 | 123.97646 | 37058 ft | 474 kts | 24° |
| 2026-04-25 05:20 | 41.20743 | 124.01830 | 37068 ft | 475 kts | 24° |
| 2026-04-25 05:20 | 41.26555 | 124.06033 | 37051 ft | 476 kts | 24° |
| 2026-04-25 05:21 | 41.32370 | 124.10246 | 37057 ft | 476 kts | 24° |
| 2026-04-25 05:21 | 41.38193 | 124.14470 | 37052 ft | 477 kts | 24° |
| 2026-04-25 05:22 | 41.44015 | 124.18738 | 37044 ft | 478 kts | 25° |
| 2026-04-25 05:22 | 41.49818 | 124.23107 | 37035 ft | 479 kts | 25° |
| 2026-04-25 05:23 | 41.55620 | 124.27497 | 37037 ft | 480 kts | 25° |
| 2026-04-25 05:23 | 41.61432 | 124.31891 | 37026 ft | 480 kts | 25° |
| 2026-04-25 05:24 | 41.67245 | 124.36289 | 37023 ft | 480 kts | 25° |
| 2026-04-25 05:24 | 41.73060 | 124.40697 | 37007 ft | 480 kts | 25° |
| 2026-04-25 05:25 | 41.78867 | 124.45115 | 37009 ft | 480 kts | 25° |
| 2026-04-25 05:25 | 41.84713 | 124.49559 | 37017 ft | 480 kts | 25° |
| 2026-04-25 05:26 | 41.90521 | 124.53991 | 37011 ft | 481 kts | 25° |
| 2026-04-25 05:26 | 41.96340 | 124.58446 | 37000 ft | 481 kts | 25° |
| 2026-04-25 05:27 | 42.02198 | 124.62768 | 37016 ft | 480 kts | 22° |
| 2026-04-25 05:27 | 42.08167 | 124.66784 | 37004 ft | 480 kts | 21° |
| 2026-04-25 05:28 | 42.14138 | 124.70799 | 36984 ft | 480 kts | 22° |
| 2026-04-25 05:28 | 42.20097 | 124.74876 | 36994 ft | 480 kts | 22° |
| 2026-04-25 05:29 | 42.26054 | 124.78989 | 36983 ft | 481 kts | 22° |
| 2026-04-25 05:29 | 42.32006 | 124.83109 | 36981 ft | 481 kts | 22° |
| 2026-04-25 05:30 | 42.37964 | 124.87239 | 37000 ft | 481 kts | 22° |
| 2026-04-25 05:30 | 42.43920 | 124.91376 | 36978 ft | 481 kts | 22° |
| 2026-04-25 05:31 | 42.49878 | 124.95524 | 36971 ft | 481 kts | 22° |
| 2026-04-25 05:31 | 42.55828 | 124.99674 | 36983 ft | 481 kts | 22° |
| 2026-04-25 05:32 | 42.61786 | 125.03838 | 36966 ft | 482 kts | 22° |
| 2026-04-25 05:32 | 42.67747 | 125.08016 | 36967 ft | 482 kts | 22° |
| 2026-04-25 05:33 | 42.73712 | 125.12208 | 36972 ft | 483 kts | 22° |
| 2026-04-25 05:33 | 42.78667 | 125.15742 | 36963 ft | 485 kts | 26° |
| 2026-04-25 05:34 | 42.83936 | 125.21627 | 36968 ft | 497 kts | 44° |
| 2026-04-25 05:34 | 42.87952 | 125.29360 | 36959 ft | 503 kts | 54° |
| 2026-04-25 05:35 | 42.92379 | 125.36586 | 36948 ft | 493 kts | 35° |
| 2026-04-25 05:35 | 42.98056 | 125.41569 | 36949 ft | 482 kts | 21° |
| 2026-04-25 05:36 | 43.04071 | 125.45644 | 36967 ft | 483 kts | 21° |
| 2026-04-25 05:36 | 43.10088 | 125.49800 | 36955 ft | 485 kts | 21° |
| 2026-04-25 05:37 | 43.16097 | 125.54021 | 36969 ft | 486 kts | 22° |
| 2026-04-25 05:37 | 43.22113 | 125.58274 | 36955 ft | 486 kts | 21° |
| 2026-04-25 05:38 | 43.28121 | 125.62529 | 36949 ft | 486 kts | 21° |
| 2026-04-25 05:38 | 43.34124 | 125.66787 | 36949 ft | 485 kts | 21° |
| 2026-04-25 05:39 | 43.40124 | 125.71050 | 36949 ft | 485 kts | 21° |
| 2026-04-25 05:39 | 43.46117 | 125.75321 | 36952 ft | 485 kts | 22° |
| 2026-04-25 05:40 | 43.52104 | 125.79606 | 36953 ft | 485 kts | 22° |
| 2026-04-25 05:40 | 43.58088 | 125.83889 | 36965 ft | 485 kts | 21° |
| 2026-04-25 05:41 | 43.64076 | 125.88180 | 36962 ft | 485 kts | 22° |
| 2026-04-25 05:41 | 43.70063 | 125.92482 | 36969 ft | 485 kts | 22° |
| 2026-04-25 05:41 | 43.72957 | 125.94901 | 36974 ft | 491 kts | 34° |
| 2026-04-25 05:42 | 43.75327 | 125.98367 | 36973 ft | 503 kts | 52° |
| 2026-04-25 05:42 | 43.76977 | 126.02663 | 36991 ft | 510 kts | 66° |
| 2026-04-25 05:42 | 43.77998 | 126.07385 | 36973 ft | 515 kts | 77° |
| 2026-04-25 05:42 | 43.78339 | 126.12318 | 36960 ft | 517 kts | 94° |
| 2026-04-25 05:43 | 43.77623 | 126.17158 | 36977 ft | 514 kts | 113° |
| 2026-04-25 05:43 | 43.74526 | 126.26046 | 36970 ft | 514 kts | 117° |
| 2026-04-25 05:44 | 43.72138 | 126.35337 | 36969 ft | 519 kts | 104° |
| 2026-04-25 05:44 | 43.70897 | 126.45162 | 36967 ft | 520 kts | 98° |
| 2026-04-25 05:45 | 43.70027 | 126.55065 | 36965 ft | 519 kts | 97° |
| 2026-04-25 05:45 | 43.69098 | 126.64942 | 36975 ft | 518 kts | 98° |
| 2026-04-25 05:46 | 43.68076 | 126.74792 | 36965 ft | 518 kts | 99° |
| 2026-04-25 05:46 | 43.67024 | 126.84646 | 36949 ft | 518 kts | 99° |
| 2026-04-25 05:47 | 43.65971 | 126.94481 | 36955 ft | 518 kts | 99° |
| 2026-04-25 05:47 | 43.64912 | 127.04319 | 36953 ft | 518 kts | 99° |
| 2026-04-25 05:48 | 43.63839 | 127.14234 | 36945 ft | 519 kts | 99° |
| 2026-04-25 05:48 | 43.62765 | 127.24074 | 36943 ft | 518 kts | 99° |
| 2026-04-25 05:49 | 43.61656 | 127.33830 | 36950 ft | 518 kts | 100° |
| 2026-04-25 05:49 | 43.60426 | 127.43637 | 36942 ft | 518 kts | 101° |
| 2026-04-25 05:50 | 43.59188 | 127.53423 | 36956 ft | 518 kts | 101° |
| 2026-04-25 05:50 | 43.57957 | 127.63222 | 36947 ft | 519 kts | 101° |
| 2026-04-25 05:51 | 43.56724 | 127.73019 | 36940 ft | 518 kts | 101° |
| 2026-04-25 05:51 | 43.55476 | 127.82816 | 36942 ft | 519 kts | 101° |
| 2026-04-25 05:52 | 43.54206 | 127.92611 | 36946 ft | 519 kts | 101° |
| 2026-04-25 05:52 | 43.52926 | 128.02412 | 36943 ft | 520 kts | 101° |
| 2026-04-25 05:53 | 43.51639 | 128.12223 | 36945 ft | 521 kts | 101° |
| 2026-04-25 05:53 | 43.50341 | 128.22063 | 36946 ft | 522 kts | 101° |
| 2026-04-25 05:54 | 43.49042 | 128.31895 | 36950 ft | 522 kts | 101° |
| 2026-04-25 05:54 | 43.47168 | 128.46722 | 36964 ft | 525 kts | 101° |
| 2026-04-25 05:55 | 43.45909 | 128.56647 | 36957 ft | 527 kts | 101° |
| 2026-04-25 05:55 | 43.44632 | 128.66576 | 36970 ft | 528 kts | 101° |
| 2026-04-25 05:56 | 43.43343 | 128.76511 | 36976 ft | 527 kts | 101° |
| 2026-04-25 05:56 | 43.42046 | 128.86444 | 36982 ft | 527 kts | 101° |
| 2026-04-25 05:57 | 43.40734 | 128.96419 | 36980 ft | 527 kts | 101° |
| 2026-04-25 05:57 | 43.39431 | 129.06269 | 36964 ft | 526 kts | 101° |
| 2026-04-25 05:58 | 43.38078 | 129.16206 | 36986 ft | 524 kts | 102° |
| 2026-04-25 05:58 | 43.36709 | 129.26038 | 37017 ft | 524 kts | 102° |
| 2026-04-25 05:59 | 43.35343 | 129.35811 | 36995 ft | 524 kts | 102° |
| 2026-04-25 05:59 | 43.33958 | 129.45696 | 36948 ft | 525 kts | 102° |
| 2026-04-25 06:00 | 43.33263 | 129.50639 | 36675 ft | 528 kts | 102° |
| 2026-04-25 06:00 | 43.32564 | 129.55593 | 36321 ft | 528 kts | 102° |
| 2026-04-25 06:00 | 43.31863 | 129.60537 | 35932 ft | 527 kts | 102° |
| 2026-04-25 06:00 | 43.31162 | 129.65475 | 35557 ft | 525 kts | 102° |
| 2026-04-25 06:01 | 43.30472 | 129.70323 | 35200 ft | 524 kts | 102° |
| 2026-04-25 06:01 | 43.29773 | 129.75212 | 34835 ft | 523 kts | 102° |
| 2026-04-25 06:01 | 43.29196 | 129.80139 | 34458 ft | 522 kts | 96° |
| 2026-04-25 06:01 | 43.28943 | 129.85113 | 34102 ft | 521 kts | 92° |
| 2026-04-25 06:02 | 43.28781 | 129.90089 | 33605 ft | 523 kts | 92° |
| 2026-04-25 06:02 | 43.28629 | 129.95086 | 33052 ft | 525 kts | 92° |
| 2026-04-25 06:02 | 43.28469 | 130.00110 | 32299 ft | 529 kts | 92° |
| 2026-04-25 06:02 | 43.28294 | 130.05162 | 31537 ft | 529 kts | 92° |
| 2026-04-25 06:03 | 43.28107 | 130.10176 | 31052 ft | 524 kts | 92° |
| 2026-04-25 06:03 | 43.27914 | 130.15143 | 30542 ft | 519 kts | 92° |
| 2026-04-25 06:03 | 43.27717 | 130.20063 | 30050 ft | 514 kts | 92° |
| 2026-04-25 06:03 | 43.27519 | 130.24946 | 29475 ft | 509 kts | 92° |
| 2026-04-25 06:04 | 43.27321 | 130.29763 | 28908 ft | 503 kts | 92° |
| 2026-04-25 06:04 | 43.27122 | 130.34598 | 28371 ft | 497 kts | 93° |
| 2026-04-25 06:04 | 43.26928 | 130.39252 | 27870 ft | 495 kts | 93° |
| 2026-04-25 06:04 | 43.26730 | 130.43972 | 27331 ft | 497 kts | 92° |
| 2026-04-25 06:05 | 43.26530 | 130.48714 | 26803 ft | 498 kts | 93° |
| 2026-04-25 06:05 | 43.26329 | 130.53448 | 26251 ft | 495 kts | 93° |
| 2026-04-25 06:05 | 43.26124 | 130.58214 | 25722 ft | 491 kts | 93° |
| 2026-04-25 06:05 | 43.25924 | 130.62805 | 25208 ft | 488 kts | 93° |
| 2026-04-25 06:06 | 43.25720 | 130.67444 | 24682 ft | 485 kts | 93° |
| 2026-04-25 06:06 | 43.25516 | 130.72051 | 24157 ft | 483 kts | 93° |
| 2026-04-25 06:06 | 43.25313 | 130.76638 | 23646 ft | 480 kts | 93° |
| 2026-04-25 06:06 | 43.25108 | 130.81188 | 23066 ft | 477 kts | 93° |
| 2026-04-25 06:07 | 43.24902 | 130.85702 | 22501 ft | 472 kts | 93° |
| 2026-04-25 06:07 | 43.24694 | 130.90241 | 21989 ft | 467 kts | 93° |
| 2026-04-25 06:07 | 43.24492 | 130.94607 | 21491 ft | 463 kts | 94° |
| 2026-04-25 06:07 | 43.24288 | 130.98987 | 20984 ft | 458 kts | 94° |
| 2026-04-25 06:08 | 43.24083 | 131.03332 | 20490 ft | 455 kts | 94° |
| 2026-04-25 06:08 | 43.23878 | 131.07656 | 20001 ft | 454 kts | 94° |
| 2026-04-25 06:08 | 43.23673 | 131.11965 | 19514 ft | 452 kts | 94° |
| 2026-04-25 06:08 | 43.23468 | 131.16250 | 19020 ft | 448 kts | 94° |
| 2026-04-25 06:09 | 43.23258 | 131.20505 | 18531 ft | 445 kts | 94° |
| 2026-04-25 06:09 | 43.22989 | 131.24713 | 18045 ft | 441 kts | 96° |
| 2026-04-25 06:09 | 43.22680 | 131.28884 | 17506 ft | 438 kts | 96° |
| 2026-04-25 06:09 | 43.22371 | 131.33007 | 17010 ft | 433 kts | 96° |
| 2026-04-25 06:10 | 43.22072 | 131.37104 | 16527 ft | 429 kts | 96° |
| 2026-04-25 06:10 | 43.21782 | 131.41152 | 16062 ft | 425 kts | 96° |
| 2026-04-25 06:10 | 43.21642 | 131.45154 | 15600 ft | 421 kts | 85° |
| 2026-04-25 06:10 | 43.22320 | 131.49009 | 15152 ft | 410 kts | 66° |
| 2026-04-25 06:11 | 43.23393 | 131.52652 | 14716 ft | 413 kts | 66° |
| 2026-04-25 06:11 | 43.24397 | 131.56335 | 14274 ft | 411 kts | 68° |
| 2026-04-25 06:11 | 43.25351 | 131.60019 | 13812 ft | 408 kts | 69° |
| 2026-04-25 06:11 | 43.26284 | 131.63682 | 13295 ft | 405 kts | 69° |
| 2026-04-25 06:12 | 43.27209 | 131.67312 | 12833 ft | 402 kts | 69° |
| 2026-04-25 06:12 | 43.28125 | 131.70912 | 12373 ft | 398 kts | 69° |
| 2026-04-25 06:12 | 43.29031 | 131.74488 | 11915 ft | 394 kts | 69° |
| 2026-04-25 06:12 | 43.29925 | 131.78019 | 11477 ft | 390 kts | 69° |
| 2026-04-25 06:13 | 43.30812 | 131.81531 | 11036 ft | 387 kts | 69° |
| 2026-04-25 06:13 | 43.31690 | 131.85008 | 10610 ft | 384 kts | 69° |
| 2026-04-25 06:13 | 43.32563 | 131.88469 | 10158 ft | 382 kts | 69° |
| 2026-04-25 06:14 | 43.33998 | 131.94168 | 9374 ft | 378 kts | 69° |
| 2026-04-25 06:14 | 43.34853 | 131.97564 | 8916 ft | 375 kts | 70° |
| 2026-04-25 06:14 | 43.35687 | 132.00892 | 8446 ft | 360 kts | 70° |
| 2026-04-25 06:14 | 43.36482 | 132.04062 | 8053 ft | 343 kts | 70° |
| 2026-04-25 06:15 | 43.37240 | 132.07095 | 7642 ft | 329 kts | 71° |
| 2026-04-25 06:15 | 43.37987 | 132.09997 | 7258 ft | 316 kts | 66° |
| 2026-04-25 06:15 | 43.39120 | 132.12499 | 6856 ft | 302 kts | 47° |
| 2026-04-25 06:15 | 43.40626 | 132.14458 | 6604 ft | 296 kts | 36° |
| 2026-04-25 06:16 | 43.42255 | 132.16188 | 6464 ft | 295 kts | 33° |
| 2026-04-25 06:16 | 43.43887 | 132.17867 | 6258 ft | 291 kts | 34° |
| 2026-04-25 06:16 | 43.45497 | 132.19541 | 6076 ft | 289 kts | 35° |
| 2026-04-25 06:16 | 43.47091 | 132.21226 | 5886 ft | 289 kts | 36° |
| 2026-04-25 06:17 | 43.48679 | 132.22918 | 5712 ft | 289 kts | 36° |
| 2026-04-25 06:17 | 43.50268 | 132.24620 | 5535 ft | 289 kts | 36° |
| 2026-04-25 06:17 | 43.51856 | 132.26332 | 5352 ft | 291 kts | 37° |
| 2026-04-25 06:17 | 43.53444 | 132.28060 | 5129 ft | 292 kts | 38° |
| 2026-04-25 06:18 | 43.55039 | 132.29792 | 4967 ft | 291 kts | 38° |
| 2026-04-25 06:18 | 43.56460 | 132.31691 | 4692 ft | 280 kts | 62° |
| 2026-04-25 06:18 | 43.57031 | 132.34130 | 4482 ft | 258 kts | 95° |
| 2026-04-25 06:18 | 43.56752 | 132.36429 | 4362 ft | 234 kts | 120° |
| 2026-04-25 06:19 | 43.55980 | 132.38272 | 4098 ft | 209 kts | 138° |
| 2026-04-25 06:19 | 43.54941 | 132.39479 | 3948 ft | 190 kts | 157° |
| 2026-04-25 06:19 | 43.53767 | 132.40154 | 4012 ft | 179 kts | 171° |
| 2026-04-25 06:19 | 43.52526 | 132.40354 | 3864 ft | 180 kts | 185° |
| 2026-04-25 06:20 | 43.51329 | 132.40057 | 3749 ft | 171 kts | 198° |
| 2026-04-25 06:20 | 43.50272 | 132.39412 | 3576 ft | 160 kts | 205° |
| 2026-04-25 06:20 | 43.49387 | 132.38580 | 3508 ft | 155 kts | 223° |
| 2026-04-25 06:20 | 43.48775 | 132.37343 | 3489 ft | 156 kts | 230° |
| 2026-04-25 06:21 | 43.48199 | 132.36034 | 3276 ft | 160 kts | 232° |
| 2026-04-25 06:21 | 43.47654 | 132.34713 | 3054 ft | 157 kts | 232° |
| 2026-04-25 06:21 | 43.47128 | 132.33413 | 2868 ft | 154 kts | 232° |
| 2026-04-25 06:21 | 43.46606 | 132.32126 | 2667 ft | 152 kts | 233° |
| 2026-04-25 06:22 | 43.46108 | 132.30884 | 2431 ft | 145 kts | 233° |
| 2026-04-25 06:22 | 43.45630 | 132.29694 | 2225 ft | 140 kts | 233° |
| 2026-04-25 06:22 | 43.45155 | 132.28513 | 2053 ft | 142 kts | 232° |
| 2026-04-25 06:22 | 43.44686 | 132.27345 | 1848 ft | 133 kts | 231° |
| 2026-04-25 06:23 | 43.44248 | 132.26262 | 1690 ft | 126 kts | 231° |
| 2026-04-25 06:23 | 43.43820 | 132.25207 | 1526 ft | 127 kts | 230° |
| 2026-04-25 06:23 | 43.43382 | 132.24123 | 1359 ft | 131 kts | 232° |
| 2026-04-25 06:23 | 43.42945 | 132.23029 | 1145 ft | 130 kts | 232° |
| 2026-04-25 06:24 | 43.42503 | 132.21932 | 951 ft | 133 kts | 232° |
| 2026-04-25 06:24 | 43.42052 | 132.20812 | 783 ft | 134 kts | 232° |
| 2026-04-25 06:24 | 43.41605 | 132.19702 | 589 ft | 131 kts | 233° |
| 2026-04-25 06:24 | 43.41164 | 132.18606 | 397 ft | 133 kts | 233° |
| 2026-04-25 06:25 | 43.40702 | 132.17456 | 220 ft | 142 kts | 236° |
| 2026-04-25 06:25 | 43.40222 | 132.16269 | 66 ft | 137 kts | 237° |
| 2026-04-25 06:25 | 43.39823 | 132.15285 | 65 ft | 93 kts | 240° |
| 2026-04-25 06:25 | 43.39598 | 132.14729 | 65 ft | 40 kts | 240° |
| 2026-04-25 06:26 | 43.39496 | 132.14479 | 63 ft | 27 kts | 241° |
| 2026-04-25 06:26 | 43.39428 | 132.14310 | 64 ft | 13 kts | 241° |
| 2026-04-25 06:26 | 43.39392 | 132.14223 | 70 ft | 10 kts | 240° |
| 2026-04-25 06:26 | 43.39341 | 132.14189 | 69 ft | 9 kts | 173° |
| 2026-04-25 06:27 | 43.39286 | 132.14222 | 62 ft | 9 kts | 152° |
| 2026-04-25 06:27 | 43.39236 | 132.14260 | 61 ft | 8 kts | 151° |
| 2026-04-25 06:27 | 43.39198 | 132.14311 | 67 ft | 8 kts | 103° |
| 2026-04-25 06:27 | 43.39214 | 132.14383 | 67 ft | 8 kts | 62° |
| 2026-04-25 06:28 | 43.39242 | 132.14452 | 66 ft | 9 kts | 62° |
| 2026-04-25 06:28 | 43.39275 | 132.14535 | 66 ft | 11 kts | 60° |
| 2026-04-25 06:28 | 43.39314 | 132.14631 | 63 ft | 12 kts | 60° |
| 2026-04-25 06:28 | 43.39354 | 132.14730 | 66 ft | 12 kts | 61° |
| 2026-04-25 06:29 | 43.39394 | 132.14830 | 64 ft | 12 kts | 61° |
| 2026-04-25 06:29 | 43.39434 | 132.14930 | 63 ft | 12 kts | 61° |
| 2026-04-25 06:29 | 43.39476 | 132.15031 | 68 ft | 12 kts | 60° |
| 2026-04-25 06:29 | 43.39516 | 132.15131 | 64 ft | 12 kts | 61° |
| 2026-04-25 06:30 | 43.39556 | 132.15229 | 71 ft | 12 kts | 61° |
| 2026-04-25 06:30 | 43.39597 | 132.15330 | 64 ft | 12 kts | 61° |
| 2026-04-25 06:30 | 43.39637 | 132.15430 | 64 ft | 12 kts | 61° |
| 2026-04-25 06:30 | 43.39677 | 132.15529 | 70 ft | 12 kts | 61° |
| 2026-04-25 06:31 | 43.39717 | 132.15627 | 64 ft | 12 kts | 61° |
| 2026-04-25 06:31 | 43.39756 | 132.15726 | 66 ft | 12 kts | 61° |
| 2026-04-25 06:31 | 43.39796 | 132.15824 | 63 ft | 12 kts | 61° |
| 2026-04-25 06:31 | 43.39836 | 132.15922 | 63 ft | 12 kts | 61° |
| 2026-04-25 06:32 | 43.39868 | 132.16001 | 64 ft | 8 kts | 60° |
| 2026-04-25 06:32 | 43.39892 | 132.16062 | 64 ft | 7 kts | 64° |
| 2026-04-25 06:32 | 43.39877 | 132.16118 | 66 ft | 7 kts | 134° |
| 2026-04-25 06:32 | 43.39838 | 132.16151 | 69 ft | 7 kts | 152° |
| 2026-04-25 06:33 | 43.39797 | 132.16182 | 66 ft | 7 kts | 151° |
| 2026-04-25 06:33 | 43.39760 | 132.16210 | 64 ft | 5 kts | 151° |
| 2026-04-25 06:33 | 43.39741 | 132.16246 | 66 ft | 5 kts | 108° |
| 2026-04-25 06:33 | 43.39729 | 132.16286 | 69 ft | 4 kts | 127° |
| 2026-04-25 06:34 | 43.39706 | 132.16310 | 64 ft | 4 kts | 149° |
| 2026-04-25 06:34 | 43.39683 | 132.16327 | 64 ft | 3 kts | 151° |
| 2026-04-25 06:34 | 43.39675 | 132.16334 | 64 ft | 0 kts | 151° |